sensor_id;sensor_type;location;lat;lon;timestamp;P1;durP1;ratioP1;P2;durP2;ratioP2
55732;SDS011;41637;52.364;9.910;2022-12-18T00:01:56;32.90;;;18.00;;
55732;SDS011;41637;52.364;9.910;2022-12-18T00:04:25;36.90;;;19.20;;
55732;SDS011;41637;52.364;9.910;2022-12-18T00:06:53;35.40;;;19.60;;
55732;SDS011;41637;52.364;9.910;2022-12-18T00:09:20;42.00;;;20.20;;
55732;SDS011;41637;52.364;9.910;2022-12-18T00:11:49;43.10;;;20.10;;
55732;SDS011;41637;52.364;9.910;2022-12-18T00:14:16;36.90;;;19.40;;
55732;SDS011;41637;52.364;9.910;2022-12-18T00:16:45;40.20;;;19.30;;
55732;SDS011;41637;52.364;9.910;2022-12-18T00:19:13;39.10;;;20.00;;
55732;SDS011;41637;52.364;9.910;2022-12-18T00:21:40;38.00;;;18.20;;
55732;SDS011;41637;52.364;9.910;2022-12-18T00:24:08;38.40;;;19.70;;
55732;SDS011;41637;52.364;9.910;2022-12-18T00:26:36;36.90;;;19.10;;
55732;SDS011;41637;52.364;9.910;2022-12-18T00:29:10;33.80;;;17.80;;
55732;SDS011;41637;52.364;9.910;2022-12-18T00:31:40;38.40;;;20.10;;
55732;SDS011;41637;52.364;9.910;2022-12-18T00:34:11;34.20;;;18.10;;
55732;SDS011;41637;52.364;9.910;2022-12-18T00:36:39;30.80;;;16.80;;
55732;SDS011;41637;52.364;9.910;2022-12-18T00:39:07;32.10;;;16.10;;
55732;SDS011;41637;52.364;9.910;2022-12-18T00:41:34;29.40;;;15.80;;
55732;SDS011;41637;52.364;9.910;2022-12-18T00:44:19;28.50;;;15.40;;
55732;SDS011;41637;52.364;9.910;2022-12-18T00:46:46;40.10;;;19.00;;
55732;SDS011;41637;52.364;9.910;2022-12-18T00:49:15;41.50;;;19.50;;
55732;SDS011;41637;52.364;9.910;2022-12-18T00:51:45;36.20;;;19.10;;
55732;SDS011;41637;52.364;9.910;2022-12-18T00:54:11;38.00;;;18.90;;
55732;SDS011;41637;52.364;9.910;2022-12-18T00:56:38;49.60;;;23.00;;
55732;SDS011;41637;52.364;9.910;2022-12-18T00:59:14;50.40;;;23.00;;
55732;SDS011;41637;52.364;9.910;2022-12-18T01:01:40;40.20;;;20.10;;
55732;SDS011;41637;52.364;9.910;2022-12-18T01:04:07;32.10;;;17.70;;
55732;SDS011;41637;52.364;9.910;2022-12-18T01:06:34;35.60;;;17.00;;
55732;SDS011;41637;52.364;9.910;2022-12-18T01:09:00;28.70;;;15.40;;
55732;SDS011;41637;52.364;9.910;2022-12-18T01:11:27;24.20;;;13.30;;
55732;SDS011;41637;52.364;9.910;2022-12-18T01:13:59;28.30;;;15.50;;
55732;SDS011;41637;52.364;9.910;2022-12-18T01:16:26;27.00;;;14.20;;
55732;SDS011;41637;52.364;9.910;2022-12-18T01:18:53;22.00;;;12.40;;
55732;SDS011;41637;52.364;9.910;2022-12-18T01:21:20;22.20;;;13.00;;
55732;SDS011;41637;52.364;9.910;2022-12-18T01:23:52;23.40;;;11.60;;
55732;SDS011;41637;52.364;9.910;2022-12-18T01:26:20;21.00;;;11.80;;
55732;SDS011;41637;52.364;9.910;2022-12-18T01:28:47;21.20;;;12.10;;
55732;SDS011;41637;52.364;9.910;2022-12-18T01:31:19;24.40;;;13.00;;
55732;SDS011;41637;52.364;9.910;2022-12-18T01:33:47;23.40;;;13.60;;
55732;SDS011;41637;52.364;9.910;2022-12-18T01:36:19;28.20;;;16.00;;
55732;SDS011;41637;52.364;9.910;2022-12-18T01:38:48;21.90;;;12.70;;
55732;SDS011;41637;52.364;9.910;2022-12-18T01:41:16;20.90;;;12.50;;
55732;SDS011;41637;52.364;9.910;2022-12-18T01:46:23;22.50;;;12.10;;
55732;SDS011;41637;52.364;9.910;2022-12-18T01:48:59;18.50;;;10.80;;
55732;SDS011;41637;52.364;9.910;2022-12-18T01:51:27;17.50;;;10.90;;
55732;SDS011;41637;52.364;9.910;2022-12-18T01:53:56;16.70;;;10.60;;
55732;SDS011;41637;52.364;9.910;2022-12-18T01:56:24;20.70;;;12.70;;
55732;SDS011;41637;52.364;9.910;2022-12-18T01:59:04;19.10;;;11.70;;
55732;SDS011;41637;52.364;9.910;2022-12-18T02:01:35;21.30;;;11.20;;
55732;SDS011;41637;52.364;9.910;2022-12-18T02:09:30;21.00;;;11.70;;
55732;SDS011;41637;52.364;9.910;2022-12-18T02:15:10;16.90;;;10.00;;
55732;SDS011;41637;52.364;9.910;2022-12-18T02:17:44;18.20;;;10.30;;
55732;SDS011;41637;52.364;9.910;2022-12-18T02:26:15;16.80;;;9.50;;
55732;SDS011;41637;52.364;9.910;2022-12-18T02:28:46;20.60;;;10.80;;
55732;SDS011;41637;52.364;9.910;2022-12-18T02:31:24;15.30;;;9.60;;
55732;SDS011;41637;52.364;9.910;2022-12-18T02:33:56;16.80;;;8.90;;
55732;SDS011;41637;52.364;9.910;2022-12-18T02:36:28;15.10;;;9.60;;
55732;SDS011;41637;52.364;9.910;2022-12-18T02:38:58;15.30;;;9.40;;
55732;SDS011;41637;52.364;9.910;2022-12-18T02:41:27;16.40;;;10.40;;
55732;SDS011;41637;52.364;9.910;2022-12-18T02:43:56;15.90;;;9.20;;
55732;SDS011;41637;52.364;9.910;2022-12-18T02:48:54;17.10;;;10.10;;
55732;SDS011;41637;52.364;9.910;2022-12-18T02:51:29;16.50;;;9.90;;
55732;SDS011;41637;52.364;9.910;2022-12-18T02:54:15;15.50;;;9.10;;
55732;SDS011;41637;52.364;9.910;2022-12-18T02:57:05;19.60;;;9.90;;
55732;SDS011;41637;52.364;9.910;2022-12-18T02:59:44;17.20;;;9.90;;
55732;SDS011;41637;52.364;9.910;2022-12-18T03:02:21;17.10;;;9.70;;
55732;SDS011;41637;52.364;9.910;2022-12-18T03:05:17;16.20;;;9.90;;
55732;SDS011;41637;52.364;9.910;2022-12-18T03:07:53;17.70;;;10.10;;
55732;SDS011;41637;52.364;9.910;2022-12-18T03:10:28;18.10;;;9.70;;
55732;SDS011;41637;52.364;9.910;2022-12-18T03:13:00;16.70;;;9.80;;
55732;SDS011;41637;52.364;9.910;2022-12-18T03:15:33;18.00;;;9.80;;
55732;SDS011;41637;52.364;9.910;2022-12-18T03:18:04;17.20;;;9.90;;
55732;SDS011;41637;52.364;9.910;2022-12-18T03:20:36;16.10;;;9.00;;
55732;SDS011;41637;52.364;9.910;2022-12-18T03:23:09;14.80;;;9.00;;
55732;SDS011;41637;52.364;9.910;2022-12-18T03:25:40;14.00;;;9.30;;
55732;SDS011;41637;52.364;9.910;2022-12-18T03:28:10;17.10;;;9.20;;
55732;SDS011;41637;52.364;9.910;2022-12-18T03:30:41;16.70;;;9.20;;
55732;SDS011;41637;52.364;9.910;2022-12-18T03:33:12;15.00;;;9.00;;
55732;SDS011;41637;52.364;9.910;2022-12-18T03:35:45;14.70;;;8.50;;
55732;SDS011;41637;52.364;9.910;2022-12-18T03:38:12;17.10;;;9.50;;
55732;SDS011;41637;52.364;9.910;2022-12-18T03:43:10;16.70;;;8.90;;
55732;SDS011;41637;52.364;9.910;2022-12-18T03:46:03;14.70;;;8.80;;
55732;SDS011;41637;52.364;9.910;2022-12-18T03:48:38;15.30;;;8.70;;
55732;SDS011;41637;52.364;9.910;2022-12-18T03:51:24;17.30;;;9.30;;
55732;SDS011;41637;52.364;9.910;2022-12-18T03:54:00;15.80;;;8.50;;
55732;SDS011;41637;52.364;9.910;2022-12-18T03:56:31;14.30;;;8.40;;
55732;SDS011;41637;52.364;9.910;2022-12-18T03:59:02;18.00;;;8.80;;
55732;SDS011;41637;52.364;9.910;2022-12-18T04:01:32;14.70;;;8.60;;
55732;SDS011;41637;52.364;9.910;2022-12-18T04:04:04;16.90;;;9.20;;
55732;SDS011;41637;52.364;9.910;2022-12-18T04:06:34;15.10;;;8.30;;
55732;SDS011;41637;52.364;9.910;2022-12-18T04:09:02;15.00;;;9.00;;
55732;SDS011;41637;52.364;9.910;2022-12-18T04:11:30;16.90;;;8.90;;
55732;SDS011;41637;52.364;9.910;2022-12-18T04:13:57;14.50;;;8.30;;
55732;SDS011;41637;52.364;9.910;2022-12-18T04:16:24;15.10;;;8.30;;
55732;SDS011;41637;52.364;9.910;2022-12-18T04:18:52;14.40;;;8.40;;
55732;SDS011;41637;52.364;9.910;2022-12-18T04:21:19;14.90;;;8.10;;
55732;SDS011;41637;52.364;9.910;2022-12-18T04:23:46;14.70;;;8.40;;
55732;SDS011;41637;52.364;9.910;2022-12-18T04:26:13;14.70;;;8.50;;
55732;SDS011;41637;52.364;9.910;2022-12-18T04:28:39;14.50;;;8.20;;
55732;SDS011;41637;52.364;9.910;2022-12-18T04:31:05;15.20;;;8.90;;
55732;SDS011;41637;52.364;9.910;2022-12-18T04:33:32;12.50;;;7.80;;
55732;SDS011;41637;52.364;9.910;2022-12-18T04:35:58;13.40;;;8.50;;
55732;SDS011;41637;52.364;9.910;2022-12-18T04:38:25;14.80;;;8.10;;
55732;SDS011;41637;52.364;9.910;2022-12-18T04:40:51;14.80;;;8.40;;
55732;SDS011;41637;52.364;9.910;2022-12-18T04:43:18;14.20;;;8.20;;
55732;SDS011;41637;52.364;9.910;2022-12-18T04:45:45;16.20;;;8.50;;
55732;SDS011;41637;52.364;9.910;2022-12-18T04:48:11;14.20;;;8.50;;
55732;SDS011;41637;52.364;9.910;2022-12-18T04:50:38;13.00;;;8.10;;
55732;SDS011;41637;52.364;9.910;2022-12-18T04:53:06;13.40;;;7.90;;
55732;SDS011;41637;52.364;9.910;2022-12-18T04:55:32;14.10;;;8.10;;
55732;SDS011;41637;52.364;9.910;2022-12-18T04:57:59;14.20;;;8.10;;
55732;SDS011;41637;52.364;9.910;2022-12-18T05:00:25;14.70;;;8.00;;
55732;SDS011;41637;52.364;9.910;2022-12-18T05:02:52;13.70;;;8.20;;
55732;SDS011;41637;52.364;9.910;2022-12-18T05:05:19;13.80;;;8.10;;
55732;SDS011;41637;52.364;9.910;2022-12-18T05:07:45;14.70;;;8.10;;
55732;SDS011;41637;52.364;9.910;2022-12-18T05:10:12;13.40;;;8.00;;
55732;SDS011;41637;52.364;9.910;2022-12-18T05:12:38;12.30;;;7.50;;
55732;SDS011;41637;52.364;9.910;2022-12-18T05:15:29;13.20;;;7.50;;
55732;SDS011;41637;52.364;9.910;2022-12-18T05:17:57;13.70;;;6.70;;
55732;SDS011;41637;52.364;9.910;2022-12-18T05:20:24;12.10;;;7.00;;
55732;SDS011;41637;52.364;9.910;2022-12-18T05:22:51;14.50;;;7.80;;
55732;SDS011;41637;52.364;9.910;2022-12-18T05:25:18;12.80;;;7.00;;
55732;SDS011;41637;52.364;9.910;2022-12-18T05:27:45;14.50;;;7.00;;
55732;SDS011;41637;52.364;9.910;2022-12-18T05:30:13;12.90;;;7.40;;
55732;SDS011;41637;52.364;9.910;2022-12-18T05:32:40;14.00;;;7.00;;
55732;SDS011;41637;52.364;9.910;2022-12-18T05:35:08;15.00;;;7.30;;
55732;SDS011;41637;52.364;9.910;2022-12-18T05:37:36;11.30;;;7.10;;
55732;SDS011;41637;52.364;9.910;2022-12-18T05:40:08;13.70;;;7.50;;
55732;SDS011;41637;52.364;9.910;2022-12-18T05:42:35;11.80;;;7.10;;
55732;SDS011;41637;52.364;9.910;2022-12-18T05:45:01;12.40;;;6.70;;
55732;SDS011;41637;52.364;9.910;2022-12-18T05:47:28;11.20;;;6.60;;
55732;SDS011;41637;52.364;9.910;2022-12-18T05:49:55;12.10;;;6.50;;
55732;SDS011;41637;52.364;9.910;2022-12-18T05:52:21;13.40;;;6.60;;
55732;SDS011;41637;52.364;9.910;2022-12-18T05:54:48;13.10;;;6.90;;
55732;SDS011;41637;52.364;9.910;2022-12-18T05:57:14;11.60;;;7.00;;
55732;SDS011;41637;52.364;9.910;2022-12-18T05:59:40;11.60;;;6.70;;
55732;SDS011;41637;52.364;9.910;2022-12-18T06:02:07;12.20;;;7.30;;
55732;SDS011;41637;52.364;9.910;2022-12-18T06:04:34;11.60;;;6.80;;
55732;SDS011;41637;52.364;9.910;2022-12-18T06:07:00;12.80;;;6.50;;
55732;SDS011;41637;52.364;9.910;2022-12-18T06:09:29;13.70;;;7.60;;
55732;SDS011;41637;52.364;9.910;2022-12-18T06:11:56;11.80;;;7.30;;
55732;SDS011;41637;52.364;9.910;2022-12-18T06:14:22;13.00;;;7.90;;
55732;SDS011;41637;52.364;9.910;2022-12-18T06:16:50;16.00;;;8.70;;
55732;SDS011;41637;52.364;9.910;2022-12-18T06:19:17;13.60;;;8.00;;
55732;SDS011;41637;52.364;9.910;2022-12-18T06:21:43;12.90;;;7.60;;
55732;SDS011;41637;52.364;9.910;2022-12-18T06:24:10;12.60;;;6.60;;
55732;SDS011;41637;52.364;9.910;2022-12-18T06:26:37;9.90;;;6.30;;
55732;SDS011;41637;52.364;9.910;2022-12-18T06:29:05;12.90;;;7.30;;
55732;SDS011;41637;52.364;9.910;2022-12-18T06:31:31;10.70;;;6.40;;
55732;SDS011;41637;52.364;9.910;2022-12-18T06:33:59;11.50;;;6.50;;
55732;SDS011;41637;52.364;9.910;2022-12-18T06:36:29;13.50;;;7.40;;
55732;SDS011;41637;52.364;9.910;2022-12-18T06:38:55;14.40;;;7.10;;
55732;SDS011;41637;52.364;9.910;2022-12-18T06:41:22;11.70;;;7.00;;
55732;SDS011;41637;52.364;9.910;2022-12-18T06:43:48;12.60;;;7.40;;
55732;SDS011;41637;52.364;9.910;2022-12-18T06:46:15;13.30;;;7.70;;
55732;SDS011;41637;52.364;9.910;2022-12-18T06:48:41;12.60;;;7.30;;
55732;SDS011;41637;52.364;9.910;2022-12-18T06:51:08;11.50;;;6.40;;
55732;SDS011;41637;52.364;9.910;2022-12-18T06:53:34;12.30;;;6.70;;
55732;SDS011;41637;52.364;9.910;2022-12-18T06:58:35;10.70;;;6.50;;
55732;SDS011;41637;52.364;9.910;2022-12-18T07:01:02;10.40;;;5.90;;
55732;SDS011;41637;52.364;9.910;2022-12-18T07:03:30;12.60;;;7.70;;
55732;SDS011;41637;52.364;9.910;2022-12-18T07:05:57;17.60;;;6.30;;
55732;SDS011;41637;52.364;9.910;2022-12-18T07:08:24;12.40;;;6.70;;
55732;SDS011;41637;52.364;9.910;2022-12-18T07:10:51;14.10;;;6.90;;
55732;SDS011;41637;52.364;9.910;2022-12-18T07:13:21;11.50;;;6.50;;
55732;SDS011;41637;52.364;9.910;2022-12-18T07:15:48;11.30;;;6.50;;
55732;SDS011;41637;52.364;9.910;2022-12-18T07:18:15;11.50;;;6.50;;
55732;SDS011;41637;52.364;9.910;2022-12-18T07:20:41;12.60;;;6.60;;
55732;SDS011;41637;52.364;9.910;2022-12-18T07:23:08;12.70;;;6.70;;
55732;SDS011;41637;52.364;9.910;2022-12-18T07:25:34;10.10;;;6.10;;
55732;SDS011;41637;52.364;9.910;2022-12-18T07:28:01;9.10;;;6.20;;
55732;SDS011;41637;52.364;9.910;2022-12-18T07:30:28;12.50;;;7.00;;
55732;SDS011;41637;52.364;9.910;2022-12-18T07:32:55;12.80;;;7.60;;
55732;SDS011;41637;52.364;9.910;2022-12-18T07:35:21;13.20;;;7.00;;
55732;SDS011;41637;52.364;9.910;2022-12-18T07:37:50;11.00;;;6.60;;
55732;SDS011;41637;52.364;9.910;2022-12-18T07:40:17;11.10;;;6.30;;
55732;SDS011;41637;52.364;9.910;2022-12-18T07:42:43;12.60;;;7.00;;
55732;SDS011;41637;52.364;9.910;2022-12-18T07:45:10;22.30;;;12.00;;
55732;SDS011;41637;52.364;9.910;2022-12-18T07:47:36;20.70;;;10.70;;
55732;SDS011;41637;52.364;9.910;2022-12-18T07:50:03;15.80;;;8.40;;
55732;SDS011;41637;52.364;9.910;2022-12-18T07:52:31;12.60;;;7.60;;
55732;SDS011;41637;52.364;9.910;2022-12-18T07:54:58;15.30;;;7.70;;
55732;SDS011;41637;52.364;9.910;2022-12-18T07:57:24;11.60;;;7.30;;
55732;SDS011;41637;52.364;9.910;2022-12-18T08:00:11;12.20;;;7.50;;
55732;SDS011;41637;52.364;9.910;2022-12-18T08:02:38;12.70;;;7.70;;
55732;SDS011;41637;52.364;9.910;2022-12-18T08:05:05;11.50;;;7.00;;
55732;SDS011;41637;52.364;9.910;2022-12-18T08:07:32;12.30;;;6.90;;
55732;SDS011;41637;52.364;9.910;2022-12-18T08:09:58;16.00;;;7.00;;
55732;SDS011;41637;52.364;9.910;2022-12-18T08:12:25;11.00;;;7.10;;
55732;SDS011;41637;52.364;9.910;2022-12-18T08:14:51;13.60;;;7.90;;
55732;SDS011;41637;52.364;9.910;2022-12-18T08:17:18;12.40;;;7.60;;
55732;SDS011;41637;52.364;9.910;2022-12-18T08:19:46;11.90;;;7.30;;
55732;SDS011;41637;52.364;9.910;2022-12-18T08:22:12;13.40;;;8.60;;
55732;SDS011;41637;52.364;9.910;2022-12-18T08:24:39;15.70;;;8.70;;
55732;SDS011;41637;52.364;9.910;2022-12-18T08:27:05;14.50;;;8.70;;
55732;SDS011;41637;52.364;9.910;2022-12-18T08:29:51;15.00;;;9.00;;
55732;SDS011;41637;52.364;9.910;2022-12-18T08:32:18;16.70;;;8.70;;
55732;SDS011;41637;52.364;9.910;2022-12-18T08:34:44;13.00;;;8.80;;
55732;SDS011;41637;52.364;9.910;2022-12-18T08:37:11;14.90;;;9.20;;
55732;SDS011;41637;52.364;9.910;2022-12-18T08:39:37;16.60;;;8.90;;
55732;SDS011;41637;52.364;9.910;2022-12-18T08:42:04;13.10;;;9.20;;
55732;SDS011;41637;52.364;9.910;2022-12-18T08:44:49;15.10;;;9.60;;
55732;SDS011;41637;52.364;9.910;2022-12-18T08:47:15;15.50;;;9.80;;
55732;SDS011;41637;52.364;9.910;2022-12-18T08:49:42;15.10;;;9.50;;
55732;SDS011;41637;52.364;9.910;2022-12-18T08:52:08;13.20;;;8.80;;
55732;SDS011;41637;52.364;9.910;2022-12-18T08:54:35;15.10;;;8.40;;
55732;SDS011;41637;52.364;9.910;2022-12-18T08:57:01;13.00;;;8.50;;
55732;SDS011;41637;52.364;9.910;2022-12-18T08:59:28;14.30;;;8.00;;
55732;SDS011;41637;52.364;9.910;2022-12-18T09:01:54;13.30;;;8.60;;
55732;SDS011;41637;52.364;9.910;2022-12-18T09:04:22;12.50;;;8.30;;
55732;SDS011;41637;52.364;9.910;2022-12-18T09:06:48;14.20;;;8.60;;
55732;SDS011;41637;52.364;9.910;2022-12-18T09:09:16;13.50;;;8.20;;
55732;SDS011;41637;52.364;9.910;2022-12-18T09:11:43;14.30;;;8.10;;
55732;SDS011;41637;52.364;9.910;2022-12-18T09:14:09;13.50;;;7.50;;
55732;SDS011;41637;52.364;9.910;2022-12-18T09:16:36;12.70;;;7.80;;
55732;SDS011;41637;52.364;9.910;2022-12-18T09:19:03;12.50;;;7.10;;
55732;SDS011;41637;52.364;9.910;2022-12-18T09:21:32;12.50;;;7.50;;
55732;SDS011;41637;52.364;9.910;2022-12-18T09:24:02;11.80;;;7.50;;
55732;SDS011;41637;52.364;9.910;2022-12-18T09:26:33;12.00;;;8.00;;
55732;SDS011;41637;52.364;9.910;2022-12-18T09:29:00;13.80;;;8.70;;
55732;SDS011;41637;52.364;9.910;2022-12-18T09:31:26;17.90;;;8.30;;
55732;SDS011;41637;52.364;9.910;2022-12-18T09:33:54;10.80;;;7.30;;
55732;SDS011;41637;52.364;9.910;2022-12-18T09:36:21;11.90;;;7.50;;
55732;SDS011;41637;52.364;9.910;2022-12-18T09:38:48;14.50;;;8.20;;
55732;SDS011;41637;52.364;9.910;2022-12-18T09:41:17;13.80;;;8.30;;
55732;SDS011;41637;52.364;9.910;2022-12-18T09:43:47;15.00;;;8.10;;
55732;SDS011;41637;52.364;9.910;2022-12-18T09:46:19;13.80;;;8.10;;
55732;SDS011;41637;52.364;9.910;2022-12-18T09:49:00;14.30;;;8.30;;
55732;SDS011;41637;52.364;9.910;2022-12-18T09:51:33;13.50;;;7.90;;
55732;SDS011;41637;52.364;9.910;2022-12-18T09:54:20;12.80;;;7.80;;
55732;SDS011;41637;52.364;9.910;2022-12-18T09:56:51;13.50;;;7.90;;
55732;SDS011;41637;52.364;9.910;2022-12-18T09:59:23;12.80;;;8.00;;
55732;SDS011;41637;52.364;9.910;2022-12-18T10:01:53;11.90;;;7.50;;
55732;SDS011;41637;52.364;9.910;2022-12-18T10:04:20;15.20;;;8.10;;
55732;SDS011;41637;52.364;9.910;2022-12-18T10:12:49;12.60;;;8.30;;
55732;SDS011;41637;52.364;9.910;2022-12-18T10:15:36;12.70;;;8.10;;
55732;SDS011;41637;52.364;9.910;2022-12-18T10:20:49;12.20;;;7.90;;
55732;SDS011;41637;52.364;9.910;2022-12-18T10:23:32;12.50;;;7.40;;
55732;SDS011;41637;52.364;9.910;2022-12-18T10:26:13;11.70;;;7.70;;
55732;SDS011;41637;52.364;9.910;2022-12-18T10:28:41;10.20;;;7.30;;
55732;SDS011;41637;52.364;9.910;2022-12-18T10:31:14;10.80;;;6.90;;
55732;SDS011;41637;52.364;9.910;2022-12-18T10:33:43;10.00;;;7.10;;
55732;SDS011;41637;52.364;9.910;2022-12-18T10:36:10;10.60;;;7.40;;
55732;SDS011;41637;52.364;9.910;2022-12-18T10:38:36;9.70;;;6.60;;
55732;SDS011;41637;52.364;9.910;2022-12-18T10:41:05;10.80;;;7.80;;
55732;SDS011;41637;52.364;9.910;2022-12-18T10:43:40;11.20;;;7.30;;
55732;SDS011;41637;52.364;9.910;2022-12-18T10:48:34;14.00;;;8.30;;
55732;SDS011;41637;52.364;9.910;2022-12-18T10:54:05;10.90;;;7.10;;
55732;SDS011;41637;52.364;9.910;2022-12-18T10:56:38;9.40;;;6.70;;
55732;SDS011;41637;52.364;9.910;2022-12-18T10:59:07;11.80;;;8.00;;
55732;SDS011;41637;52.364;9.910;2022-12-18T11:04:13;12.80;;;8.70;;
55732;SDS011;41637;52.364;9.910;2022-12-18T11:06:53;13.70;;;8.80;;
55732;SDS011;41637;52.364;9.910;2022-12-18T11:09:31;13.90;;;9.00;;
55732;SDS011;41637;52.364;9.910;2022-12-18T11:12:00;17.00;;;9.90;;
55732;SDS011;41637;52.364;9.910;2022-12-18T11:14:29;16.90;;;11.30;;
55732;SDS011;41637;52.364;9.910;2022-12-18T11:16:59;17.10;;;10.60;;
55732;SDS011;41637;52.364;9.910;2022-12-18T11:19:51;19.00;;;10.90;;
55732;SDS011;41637;52.364;9.910;2022-12-18T11:22:21;17.60;;;10.70;;
55732;SDS011;41637;52.364;9.910;2022-12-18T11:25:03;17.30;;;10.40;;
55732;SDS011;41637;52.364;9.910;2022-12-18T11:27:53;16.00;;;10.20;;
55732;SDS011;41637;52.364;9.910;2022-12-18T11:32:50;14.60;;;9.50;;
55732;SDS011;41637;52.364;9.910;2022-12-18T11:35:24;16.10;;;10.10;;
55732;SDS011;41637;52.364;9.910;2022-12-18T11:38:24;15.20;;;9.60;;
55732;SDS011;41637;52.364;9.910;2022-12-18T11:41:05;15.70;;;9.40;;
55732;SDS011;41637;52.364;9.910;2022-12-18T11:43:41;15.10;;;9.60;;
55732;SDS011;41637;52.364;9.910;2022-12-18T11:46:16;15.10;;;9.70;;
55732;SDS011;41637;52.364;9.910;2022-12-18T11:48:52;15.10;;;9.30;;
55732;SDS011;41637;52.364;9.910;2022-12-18T11:51:35;15.00;;;9.60;;
55732;SDS011;41637;52.364;9.910;2022-12-18T11:54:15;14.60;;;9.60;;
55732;SDS011;41637;52.364;9.910;2022-12-18T11:59:33;14.30;;;9.20;;
55732;SDS011;41637;52.364;9.910;2022-12-18T12:02:21;13.60;;;8.80;;
55732;SDS011;41637;52.364;9.910;2022-12-18T12:08:19;16.20;;;10.30;;
55732;SDS011;41637;52.364;9.910;2022-12-18T12:11:08;14.50;;;9.70;;
55732;SDS011;41637;52.364;9.910;2022-12-18T12:14:09;16.40;;;10.60;;
55732;SDS011;41637;52.364;9.910;2022-12-18T12:19:34;15.90;;;9.90;;
55732;SDS011;41637;52.364;9.910;2022-12-18T12:25:20;14.30;;;9.10;;
55732;SDS011;41637;52.364;9.910;2022-12-18T12:27:51;14.30;;;9.10;;
55732;SDS011;41637;52.364;9.910;2022-12-18T12:31:05;12.20;;;9.00;;
55732;SDS011;41637;52.364;9.910;2022-12-18T12:36:23;12.70;;;8.50;;
55732;SDS011;41637;52.364;9.910;2022-12-18T12:39:08;13.30;;;8.80;;
55732;SDS011;41637;52.364;9.910;2022-12-18T12:41:40;16.70;;;10.40;;
55732;SDS011;41637;52.364;9.910;2022-12-18T12:44:28;15.40;;;10.10;;
55732;SDS011;41637;52.364;9.910;2022-12-18T12:47:04;17.70;;;11.10;;
55732;SDS011;41637;52.364;9.910;2022-12-18T12:49:41;19.50;;;11.30;;
55732;SDS011;41637;52.364;9.910;2022-12-18T12:52:16;17.70;;;11.10;;
55732;SDS011;41637;52.364;9.910;2022-12-18T12:54:53;17.10;;;10.30;;
55732;SDS011;41637;52.364;9.910;2022-12-18T12:57:43;17.00;;;10.80;;
55732;SDS011;41637;52.364;9.910;2022-12-18T13:00:16;18.70;;;10.70;;
55732;SDS011;41637;52.364;9.910;2022-12-18T13:05:26;17.90;;;11.30;;
55732;SDS011;41637;52.364;9.910;2022-12-18T13:08:03;19.20;;;11.30;;
55732;SDS011;41637;52.364;9.910;2022-12-18T13:13:04;18.00;;;11.70;;
55732;SDS011;41637;52.364;9.910;2022-12-18T13:16:05;19.30;;;11.20;;
55732;SDS011;41637;52.364;9.910;2022-12-18T13:18:33;19.10;;;10.70;;
55732;SDS011;41637;52.364;9.910;2022-12-18T13:23:36;20.10;;;11.60;;
55732;SDS011;41637;52.364;9.910;2022-12-18T13:34:16;20.70;;;11.80;;
55732;SDS011;41637;52.364;9.910;2022-12-18T13:36:54;18.50;;;11.10;;
55732;SDS011;41637;52.364;9.910;2022-12-18T13:44:32;18.10;;;11.50;;
55732;SDS011;41637;52.364;9.910;2022-12-18T13:50:00;19.40;;;12.00;;
55732;SDS011;41637;52.364;9.910;2022-12-18T13:52:36;22.10;;;12.10;;
55732;SDS011;41637;52.364;9.910;2022-12-18T13:55:06;20.40;;;12.40;;
55732;SDS011;41637;52.364;9.910;2022-12-18T13:57:41;20.90;;;11.80;;
55732;SDS011;41637;52.364;9.910;2022-12-18T14:00:27;22.40;;;12.30;;
55732;SDS011;41637;52.364;9.910;2022-12-18T14:02:55;20.90;;;12.60;;
55732;SDS011;41637;52.364;9.910;2022-12-18T14:05:25;21.10;;;12.30;;
55732;SDS011;41637;52.364;9.910;2022-12-18T14:07:52;20.50;;;12.80;;
55732;SDS011;41637;52.364;9.910;2022-12-18T14:10:20;20.70;;;12.80;;
55732;SDS011;41637;52.364;9.910;2022-12-18T14:13:08;24.00;;;14.40;;
55732;SDS011;41637;52.364;9.910;2022-12-18T14:15:44;25.70;;;14.30;;
55732;SDS011;41637;52.364;9.910;2022-12-18T14:20:55;22.00;;;13.30;;
55732;SDS011;41637;52.364;9.910;2022-12-18T14:23:27;23.80;;;13.60;;
55732;SDS011;41637;52.364;9.910;2022-12-18T14:25:56;24.00;;;14.00;;
55732;SDS011;41637;52.364;9.910;2022-12-18T14:28:30;22.30;;;13.70;;
55732;SDS011;41637;52.364;9.910;2022-12-18T14:30:56;23.40;;;13.90;;
55732;SDS011;41637;52.364;9.910;2022-12-18T14:33:24;23.60;;;14.20;;
55732;SDS011;41637;52.364;9.910;2022-12-18T14:40:57;23.60;;;13.80;;
55732;SDS011;41637;52.364;9.910;2022-12-18T14:43:29;24.90;;;13.80;;
55732;SDS011;41637;52.364;9.910;2022-12-18T14:46:00;24.00;;;14.20;;
55732;SDS011;41637;52.364;9.910;2022-12-18T14:48:36;23.50;;;14.20;;
55732;SDS011;41637;52.364;9.910;2022-12-18T14:51:14;23.80;;;13.60;;
55732;SDS011;41637;52.364;9.910;2022-12-18T14:54:04;23.70;;;13.80;;
55732;SDS011;41637;52.364;9.910;2022-12-18T14:56:36;23.60;;;13.80;;
55732;SDS011;41637;52.364;9.910;2022-12-18T14:59:13;24.90;;;14.60;;
55732;SDS011;41637;52.364;9.910;2022-12-18T15:04:30;22.80;;;13.90;;
55732;SDS011;41637;52.364;9.910;2022-12-18T15:09:40;23.00;;;13.90;;
55732;SDS011;41637;52.364;9.910;2022-12-18T15:12:19;25.90;;;14.00;;
55732;SDS011;41637;52.364;9.910;2022-12-18T15:14:52;26.80;;;15.20;;
55732;SDS011;41637;52.364;9.910;2022-12-18T15:17:21;27.60;;;15.30;;
55732;SDS011;41637;52.364;9.910;2022-12-18T15:19:51;26.10;;;15.60;;
55732;SDS011;41637;52.364;9.910;2022-12-18T15:22:33;24.30;;;14.40;;
55732;SDS011;41637;52.364;9.910;2022-12-18T15:25:02;26.30;;;15.40;;
55732;SDS011;41637;52.364;9.910;2022-12-18T15:27:47;26.80;;;15.70;;
55732;SDS011;41637;52.364;9.910;2022-12-18T15:32:40;24.10;;;14.20;;
55732;SDS011;41637;52.364;9.910;2022-12-18T15:37:40;25.90;;;13.80;;
55732;SDS011;41637;52.364;9.910;2022-12-18T15:40:08;24.30;;;13.70;;
55732;SDS011;41637;52.364;9.910;2022-12-18T15:42:38;24.40;;;13.80;;
55732;SDS011;41637;52.364;9.910;2022-12-18T15:45:24;25.80;;;14.80;;
55732;SDS011;41637;52.364;9.910;2022-12-18T15:47:50;24.50;;;14.30;;
55732;SDS011;41637;52.364;9.910;2022-12-18T15:50:16;23.80;;;14.60;;
55732;SDS011;41637;52.364;9.910;2022-12-18T15:52:44;23.80;;;14.90;;
55732;SDS011;41637;52.364;9.910;2022-12-18T15:55:13;23.40;;;14.30;;
55732;SDS011;41637;52.364;9.910;2022-12-18T15:58:01;23.90;;;14.10;;
55732;SDS011;41637;52.364;9.910;2022-12-18T16:00:28;22.80;;;14.90;;
55732;SDS011;41637;52.364;9.910;2022-12-18T16:02:54;26.50;;;15.00;;
55732;SDS011;41637;52.364;9.910;2022-12-18T16:05:22;25.70;;;14.80;;
55732;SDS011;41637;52.364;9.910;2022-12-18T16:07:49;24.30;;;15.20;;
55732;SDS011;41637;52.364;9.910;2022-12-18T16:10:16;24.20;;;15.40;;
55732;SDS011;41637;52.364;9.910;2022-12-18T16:12:43;26.30;;;15.80;;
55732;SDS011;41637;52.364;9.910;2022-12-18T16:15:10;26.90;;;15.80;;
55732;SDS011;41637;52.364;9.910;2022-12-18T16:17:46;23.40;;;14.20;;
55732;SDS011;41637;52.364;9.910;2022-12-18T16:20:14;23.60;;;13.60;;
55732;SDS011;41637;52.364;9.910;2022-12-18T16:22:46;23.40;;;14.40;;
55732;SDS011;41637;52.364;9.910;2022-12-18T16:25:21;23.50;;;13.90;;
55732;SDS011;41637;52.364;9.910;2022-12-18T16:27:51;20.80;;;12.30;;
55732;SDS011;41637;52.364;9.910;2022-12-18T16:30:20;24.50;;;14.80;;
55732;SDS011;41637;52.364;9.910;2022-12-18T16:32:48;26.00;;;15.00;;